Погода Верхний Спассна неделю

Тверская область, Россия

24 - 30 мая
  • 24мая
    Сегодня
    +6°
    +22°
    Ясно и безоблачно
    ВремяПогодаТемператураВлажностьДавлениеВетер, м/сВероятность осадков
    00:00Ясно и безоблачно+10°C58 %758 мм0.8 м/с2 %
    03:00Ясно и безоблачно+7°C60 %758 мм0.9 м/с2 %
    06:00Ясно и безоблачно+8°C66 %759 мм1.0 м/с2 %
    09:00Ясно и безоблачно+17°C54 %760 мм1.7 м/с2 %
    12:00Ясно и безоблачно+20°C37 %760 мм2.4 м/с2 %
    15:00Ясно и безоблачно+21°C37 %759 мм2.9 м/с2 %
    18:00Ясно и безоблачно+21°C39 %758 мм2.5 м/с2 %
    21:00Ясно и безоблачно+16°C62 %758 мм1.2 м/с2 %
  • 25мая
    Суббота
    +9°
    +23°
    Ясно и безоблачно
    ВремяПогодаТемператураВлажностьДавлениеВетер, м/сВероятность осадков
    00:00Ясно и безоблачно+10°C61 %758 мм0.8 м/с2 %
    03:00Облачно с прояснениями+7°C68 %758 мм1.0 м/с2 %
    06:00Ясно и безоблачно+9°C72 %758 мм1.2 м/с2 %
    09:00Ясно и безоблачно+17°C49 %758 мм2.2 м/с2 %
    12:00Небольшая облачность+20°C36 %757 мм2.9 м/с2 %
    15:00Ясно и безоблачно+23°C33 %756 мм3.2 м/с2 %
    18:00Ясно и безоблачно+23°C35 %755 мм2.5 м/с2 %
    21:00Ясно и безоблачно+18°C57 %754 мм1.4 м/с2 %
  • 26мая
    Воскресенье
    +6°
    +24°
    Небольшая облачность, ливень
    ВремяПогодаТемператураВлажностьДавлениеВетер, м/сВероятность осадков
    00:00Ясно и безоблачно+12°C61 %754 мм1.1 м/с2 %
    03:00Ясно и безоблачно+10°C68 %753 мм1.1 м/с2 %
    06:00Ясно и безоблачно+13°C70 %754 мм1.2 м/с2 %
    09:00Практически безоблачно+21°C53 %754 мм1.8 м/с2 %
    12:00Облачно с прояснениями+23°C53 %754 мм2.3 м/с23 %
    15:00Небольшая облачность, ливень+20°C80 %754 мм2.4 м/с65 %
    18:00Облачно с прояснениями+21°C66 %754 мм2.2 м/с49 %
    21:00Практически безоблачно+18°C80 %754 мм1.4 м/с19 %
  • 27мая
    Понедельник
    +8°
    +24°
    Ясно и безоблачно
    ВремяПогодаТемператураВлажностьДавлениеВетер, м/сВероятность осадков
    00:00Ясно и безоблачно+12°C56 %755 мм1.3 м/с2 %
    03:00Ясно и безоблачно+9°C62 %756 мм1.1 м/с2 %
    06:00Ясно и безоблачно+8°C72 %756 мм1.2 м/с2 %
    09:00Практически безоблачно+17°C61 %757 мм2.0 м/с2 %
    12:00Ясно и безоблачно+21°C44 %757 мм2.6 м/с5 %
    15:00Ясно и безоблачно+22°C37 %756 мм2.2 м/с5 %
    18:00Ясно и безоблачно+22°C38 %755 мм1.9 м/с7 %
    21:00Ясно и безоблачно+17°C68 %754 мм1.1 м/с3 %
  • 28мая
    Вторник
    +12°
    +25°
    Небольшая облачность
    ВремяПогодаТемператураВлажностьДавлениеВетер, м/сВероятность осадков
    00:00Ясно и безоблачно+12°C68 %754 мм0.6 м/с2 %
    03:00Ясно и безоблачно+9°C80 %754 мм0.7 м/с2 %
    06:00Ясно и безоблачно+9°C80 %754 мм0.9 м/с6 %
    09:00Ясно и безоблачно+21°C65 %754 мм1.7 м/с2 %
    12:00Практически безоблачно+23°C48 %754 мм2.2 м/с9 %
    15:00Небольшая облачность+24°C41 %753 мм2.0 м/с3 %
    18:00Ясно и безоблачно+24°C46 %752 мм1.6 м/с2 %
    21:00Ясно и безоблачно+19°C71 %752 мм1.1 м/с2 %
Мы используем cookies
Соглашаюсь